<?xml version="1.0" encoding="UTF-8" standalone="no" ?><gpx xmlns="http://www.topografix.com/GPX/1/1" xmlns:gpxx="http://www.garmin.com/xmlschemas/GpxExtensions/v3" xmlns:wptx1="http://www.garmin.com/xmlschemas/WaypointExtension/v1" xmlns:gpxtpx="http://www.garmin.com/xmlschemas/TrackPointExtension/v1" creator="GuideVTT.com" version="1.1" xmlns:xsi="http://www.w3.org/2001/XMLSchema-instance" xsi:schemaLocation="http://www.topografix.com/GPX/1/1 http://www.topografix.com/GPX/1/1/gpx.xsd http://www.garmin.com/xmlschemas/GpxExtensions/v3 http://www8.garmin.com/xmlschemas/GpxExtensionsv3.xsd http://www.garmin.com/xmlschemas/WaypointExtension/v1 http://www8.garmin.com/xmlschemas/WaypointExtensionv1.xsd http://www.garmin.com/xmlschemas/TrackPointExtension/v1 http://www.garmin.com/xmlschemas/TrackPointExtensionv1.xsd">
<metadata><link href="http://www.garmin.com"><text>Garmin International</text></link><time>2013-06-22T15:13:50Z</time></metadata>
<trk><name>vuiteboeuf1167d.gpx</name><extensions><gpxx:TrackExtension><gpxx:DisplayColor>Cyan</gpxx:DisplayColor></gpxx:TrackExtension></extensions><trkseg>
<trkpt lat="46.8074825306443" lon="6.561111470661794"><ele></ele><time>2014-6-22T14:19:40Z</time></trkpt>
<trkpt lat="46.807782855272585" lon="6.561565179218871"><ele></ele><time>2014-6-22T14:19:43Z</time></trkpt>
<trkpt lat="46.808193110686275" lon="6.56227915612826"><ele></ele><time>2014-6-22T14:19:46Z</time></trkpt>
<trkpt lat="46.80875876441027" lon="6.563318188610486"><ele></ele><time>2014-6-22T14:19:49Z</time></trkpt>
<trkpt lat="46.80921398362012" lon="6.564031466865995"><ele></ele><time>2014-6-22T14:19:52Z</time></trkpt>
<trkpt lat="46.80967118535642" lon="6.565006771454246"><ele></ele><time>2014-6-22T14:19:55Z</time></trkpt>
<trkpt lat="46.80992731396805" lon="6.565566050018986"><ele></ele><time>2014-6-22T14:19:58Z</time></trkpt>
<trkpt lat="46.810376267285534" lon="6.565454006673175"><ele></ele><time>2014-6-22T14:20:1Z</time></trkpt>
<trkpt lat="46.81077657075803" lon="6.564857948858414"><ele></ele><time>2014-6-22T14:20:4Z</time></trkpt>
<trkpt lat="46.8113051308741" lon="6.563381933608005"><ele></ele><time>2014-6-22T14:20:7Z</time></trkpt>
<trkpt lat="46.81167495221289" lon="6.562327743811579"><ele></ele><time>2014-6-22T14:20:10Z</time></trkpt>
<trkpt lat="46.812072945698816" lon="6.561430318732771"><ele></ele><time>2014-6-22T14:20:13Z</time></trkpt>
<trkpt lat="46.81229382836904" lon="6.560902629424843"><ele></ele><time>2014-6-22T14:20:16Z</time></trkpt>
<trkpt lat="46.81240557083555" lon="6.560219466487605"><ele></ele><time>2014-6-22T14:20:19Z</time></trkpt>
<trkpt lat="46.8124417502095" lon="6.559065816981214"><ele></ele><time>2014-6-22T14:20:22Z</time></trkpt>
<trkpt lat="46.81249921181529" lon="6.558344219757282"><ele></ele><time>2014-6-22T14:20:25Z</time></trkpt>
<trkpt lat="46.81252219162255" lon="6.557819726127148"><ele></ele><time>2014-6-22T14:20:28Z</time></trkpt>
<trkpt lat="46.81252118999549" lon="6.557688712182062"><ele></ele><time>2014-6-22T14:20:31Z</time></trkpt>
<trkpt lat="46.81272138217134" lon="6.55798683240457"><ele></ele><time>2014-6-22T14:20:34Z</time></trkpt>
<trkpt lat="46.8129774448739" lon="6.558533007784231"><ele></ele><time>2014-6-22T14:20:37Z</time></trkpt>
<trkpt lat="46.81331305912012" lon="6.5588944537782226"><ele></ele><time>2014-6-22T14:20:40Z</time></trkpt>
<trkpt lat="46.813746316539465" lon="6.559083978602827"><ele></ele><time>2014-6-22T14:20:43Z</time></trkpt>
<trkpt lat="46.81421675314755" lon="6.559430145043694"><ele></ele><time>2014-6-22T14:20:46Z</time></trkpt>
<trkpt lat="46.814379661697046" lon="6.559558539888734"><ele></ele><time>2014-6-22T14:20:49Z</time></trkpt>
<trkpt lat="46.81471876878421" lon="6.560378569267543"><ele></ele><time>2014-6-22T14:20:52Z</time></trkpt>
<trkpt lat="46.81481390904046" lon="6.561058414953108"><ele></ele><time>2014-6-22T14:20:55Z</time></trkpt>
<trkpt lat="46.814818198420305" lon="6.561621799143232"><ele></ele><time>2014-6-22T14:20:58Z</time></trkpt>
<trkpt lat="46.81514199024173" lon="6.56279589371157"><ele></ele><time>2014-6-22T14:21:1Z</time></trkpt>
<trkpt lat="46.815277412301214" lon="6.562859226087234"><ele></ele><time>2014-6-22T14:21:4Z</time></trkpt>
<trkpt lat="46.81586208357452" lon="6.562849788731025"><ele></ele><time>2014-6-22T14:21:7Z</time></trkpt>
<trkpt lat="46.815730146172626" lon="6.563245032075463"><ele></ele><time>2014-6-22T14:21:10Z</time></trkpt>
<trkpt lat="46.81598797403075" lon="6.564027103292364"><ele></ele><time>2014-6-22T14:21:13Z</time></trkpt>
<trkpt lat="46.81640318015383" lon="6.5653963249723155"><ele></ele><time>2014-6-22T14:21:16Z</time></trkpt>
<trkpt lat="46.81674442738075" lon="6.566504675328817"><ele></ele><time>2014-6-22T14:21:19Z</time></trkpt>
<trkpt lat="46.81715881179437" lon="6.567769114942894"><ele></ele><time>2014-6-22T14:21:22Z</time></trkpt>
<trkpt lat="46.81727970566343" lon="6.568291340760946"><ele></ele><time>2014-6-22T14:21:25Z</time></trkpt>
<trkpt lat="46.81712175374184" lon="6.568818039142395"><ele></ele><time>2014-6-22T14:21:28Z</time></trkpt>
<trkpt lat="46.81690162541028" lon="6.569450563049106"><ele></ele><time>2014-6-22T14:21:31Z</time></trkpt>
<trkpt lat="46.81690211952374" lon="6.569516075442789"><ele></ele><time>2014-6-22T14:21:34Z</time></trkpt>
<trkpt lat="46.81689394957007" lon="6.569525413436584"><ele></ele><time>2014-6-22T14:21:37Z</time></trkpt>
<trkpt lat="46.816894741649136" lon="6.569630233399192"><ele></ele><time>2014-6-22T14:21:40Z</time></trkpt>
<trkpt lat="46.81641178740125" lon="6.570004893430175"><ele></ele><time>2014-6-22T14:21:43Z</time></trkpt>
<trkpt lat="46.815625180349514" lon="6.570672697565302"><ele></ele><time>2014-6-22T14:21:46Z</time></trkpt>
<trkpt lat="46.81524937093712" lon="6.570940793658567"><ele></ele><time>2014-6-22T14:21:49Z</time></trkpt>
<trkpt lat="46.81478282100008" lon="6.571105510690663"><ele></ele><time>2014-6-22T14:21:52Z</time></trkpt>
<trkpt lat="46.81444397821561" lon="6.571504042509355"><ele></ele><time>2014-6-22T14:21:55Z</time></trkpt>
<trkpt lat="46.814213665588596" lon="6.571979453150324"><ele></ele><time>2014-6-22T14:21:58Z</time></trkpt>
<trkpt lat="46.8136822583859" lon="6.573088633031046"><ele></ele><time>2014-6-22T14:22:1Z</time></trkpt>
<trkpt lat="46.81303856661942" lon="6.573623044740777"><ele></ele><time>2014-6-22T14:22:4Z</time></trkpt>
<trkpt lat="46.812108216248056" lon="6.57431925361729"><ele></ele><time>2014-6-22T14:22:7Z</time></trkpt>
<trkpt lat="46.811321190127586" lon="6.574934536987908"><ele></ele><time>2014-6-22T14:22:10Z</time></trkpt>
<trkpt lat="46.80990844705872" lon="6.576083867125321"><ele></ele><time>2014-6-22T14:22:13Z</time></trkpt>
<trkpt lat="46.810191645517165" lon="6.577861289723472"><ele></ele><time>2014-6-22T14:22:16Z</time></trkpt>
<trkpt lat="46.810471096649366" lon="6.579140894753729"><ele></ele><time>2014-6-22T14:22:19Z</time></trkpt>
<trkpt lat="46.81061893114227" lon="6.57966265071945"><ele></ele><time>2014-6-22T14:22:22Z</time></trkpt>
<trkpt lat="46.81042475993958" lon="6.580163624475324"><ele></ele><time>2014-6-22T14:22:25Z</time></trkpt>
<trkpt lat="46.81030274155195" lon="6.580689656712628"><ele></ele><time>2014-6-22T14:22:28Z</time></trkpt>
<trkpt lat="46.81061521239415" lon="6.581575680246097"><ele></ele><time>2014-6-22T14:22:31Z</time></trkpt>
<trkpt lat="46.81096560658327" lon="6.58272316692571"><ele></ele><time>2014-6-22T14:22:34Z</time></trkpt>
<trkpt lat="46.81109582464674" lon="6.583297626006664"><ele></ele><time>2014-6-22T14:22:37Z</time></trkpt>
<trkpt lat="46.811171680650276" lon="6.583820534946307"><ele></ele><time>2014-6-22T14:22:40Z</time></trkpt>
<trkpt lat="46.81110575586046" lon="6.584633939592835"><ele></ele><time>2014-6-22T14:22:43Z</time></trkpt>
<trkpt lat="46.81169786539439" lon="6.58441496002994"><ele></ele><time>2014-6-22T14:22:46Z</time></trkpt>
<trkpt lat="46.81195575441556" lon="6.58522327029569"><ele></ele><time>2014-6-22T14:22:49Z</time></trkpt>
<trkpt lat="46.81240324204826" lon="6.58733890007751"><ele></ele><time>2014-6-22T14:22:52Z</time></trkpt>
<trkpt lat="46.81247869190967" lon="6.587809421544513"><ele></ele><time>2014-6-22T14:22:55Z</time></trkpt>
<trkpt lat="46.80989395915172" lon="6.58863615838309"><ele></ele><time>2014-6-22T14:22:58Z</time></trkpt>
<trkpt lat="46.810440237306345" lon="6.589518555430699"><ele></ele><time>2014-6-22T14:23:1Z</time></trkpt>
<trkpt lat="46.81076734353613" lon="6.589958915142941"><ele></ele><time>2014-6-22T14:23:4Z</time></trkpt>
<trkpt lat="46.81109792574531" lon="6.5908709206639555"><ele></ele><time>2014-6-22T14:23:7Z</time></trkpt>
<trkpt lat="46.811118426104" lon="6.5912112685063455"><ele></ele><time>2014-6-22T14:23:10Z</time></trkpt>
<trkpt lat="46.81190953711811" lon="6.593583607893885"><ele></ele><time>2014-6-22T14:23:13Z</time></trkpt>
<trkpt lat="46.81239515435105" lon="6.596013180023011"><ele></ele><time>2014-6-22T14:23:16Z</time></trkpt>
<trkpt lat="46.812860241170384" lon="6.598102434171599"><ele></ele><time>2014-6-22T14:23:19Z</time></trkpt>
<trkpt lat="46.81323170981174" lon="6.5996952534643745"><ele></ele><time>2014-6-22T14:23:22Z</time></trkpt>
<trkpt lat="46.81347226481701" lon="6.600608751779669"><ele></ele><time>2014-6-22T14:23:25Z</time></trkpt>
<trkpt lat="46.81375298666983" lon="6.602098180922855"><ele></ele><time>2014-6-22T14:23:28Z</time></trkpt>
<trkpt lat="46.81381000502268" lon="6.6025166052026725"><ele></ele><time>2014-6-22T14:23:31Z</time></trkpt>
<trkpt lat="46.814192808885025" lon="6.605681710827556"><ele></ele><time>2014-6-22T14:23:34Z</time></trkpt>
<trkpt lat="46.81457420188272" lon="6.608663433326089"><ele></ele><time>2014-6-22T14:23:37Z</time></trkpt>
<trkpt lat="46.81488299225798" lon="6.6115676839740125"><ele></ele><time>2014-6-22T14:23:40Z</time></trkpt>
<trkpt lat="46.81558064209134" lon="6.6110066779252055"><ele></ele><time>2014-6-22T14:23:43Z</time></trkpt>
<trkpt lat="46.81569611883606" lon="6.612053210960686"><ele></ele><time>2014-6-22T14:23:46Z</time></trkpt>
<trkpt lat="46.81579416024683" lon="6.613178636439675"><ele></ele><time>2014-6-22T14:23:49Z</time></trkpt>
<trkpt lat="46.815963023555874" lon="6.6141457428631165"><ele></ele><time>2014-6-22T14:23:52Z</time></trkpt>
<trkpt lat="46.816912545234054" lon="6.613580923079777"><ele></ele><time>2014-6-22T14:23:55Z</time></trkpt>
<trkpt lat="46.81760907615288" lon="6.612862689049946"><ele></ele><time>2014-6-22T14:23:58Z</time></trkpt>
<trkpt lat="46.817841252114206" lon="6.612623273585772"><ele></ele><time>2014-6-22T14:24:1Z</time></trkpt>
<trkpt lat="46.818340075926564" lon="6.611934240796169"><ele></ele><time>2014-6-22T14:24:4Z</time></trkpt>
<trkpt lat="46.81893242553711" lon="6.611741737747266"><ele></ele><time>2014-6-22T14:24:7Z</time></trkpt>
<trkpt lat="46.819614912906836" lon="6.611574063523359"><ele></ele><time>2014-6-22T14:24:10Z</time></trkpt>
<trkpt lat="46.82006145742582" lon="6.6111216831535815"><ele></ele><time>2014-6-22T14:24:13Z</time></trkpt>
<trkpt lat="46.82052466956417" lon="6.610485572036697"><ele></ele><time>2014-6-22T14:24:16Z</time></trkpt>
<trkpt lat="46.82082445807538" lon="6.609642270967978"><ele></ele><time>2014-6-22T14:24:19Z</time></trkpt>
<trkpt lat="46.820895095652304" lon="6.6094577201572475"><ele></ele><time>2014-6-22T14:24:22Z</time></trkpt>
<trkpt lat="46.82125338289123" lon="6.609242554433852"><ele></ele><time>2014-6-22T14:24:25Z</time></trkpt>
<trkpt lat="46.82177225594052" lon="6.608841453569439"><ele></ele><time>2014-6-22T14:24:28Z</time></trkpt>
<trkpt lat="46.82227029996334" lon="6.608047504658662"><ele></ele><time>2014-6-22T14:24:31Z</time></trkpt>
<trkpt lat="46.822587492128655" lon="6.607125262938246"><ele></ele><time>2014-6-22T14:24:34Z</time></trkpt>
<trkpt lat="46.82281681298092" lon="6.606492680721765"><ele></ele><time>2014-6-22T14:24:37Z</time></trkpt>
<trkpt lat="46.82315406985367" lon="6.605858433546067"><ele></ele><time>2014-6-22T14:24:40Z</time></trkpt>
<trkpt lat="46.82329476303822" lon="6.605410680911712"><ele></ele><time>2014-6-22T14:24:43Z</time></trkpt>
<trkpt lat="46.82326993551499" lon="6.604467461989716"><ele></ele><time>2014-6-22T14:24:46Z</time></trkpt>
<trkpt lat="46.82324662209383" lon="6.603733909493858"><ele></ele><time>2014-6-22T14:24:49Z</time></trkpt>
<trkpt lat="46.82349315266042" lon="6.602996194349246"><ele></ele><time>2014-6-22T14:24:52Z</time></trkpt>
<trkpt lat="46.823809160496616" lon="6.601916651220012"><ele></ele><time>2014-6-22T14:24:55Z</time></trkpt>
<trkpt lat="46.824054725309615" lon="6.601047877171988"><ele></ele><time>2014-6-22T14:24:58Z</time></trkpt>
<trkpt lat="46.82455347918961" lon="6.600358657966698"><ele></ele><time>2014-6-22T14:25:1Z</time></trkpt>
<trkpt lat="46.824983517778435" lon="6.600116094139034"><ele></ele><time>2014-6-22T14:25:4Z</time></trkpt>
<trkpt lat="46.825234994317256" lon="6.600059776522659"><ele></ele><time>2014-6-22T14:25:7Z</time></trkpt>
<trkpt lat="46.82552397892905" lon="6.600212575576865"><ele></ele><time>2014-6-22T14:25:10Z</time></trkpt>
<trkpt lat="46.82595669155265" lon="6.6003369392237285"><ele></ele><time>2014-6-22T14:25:13Z</time></trkpt>
<trkpt lat="46.82611726360599" lon="6.600150966089135"><ele></ele><time>2014-6-22T14:25:16Z</time></trkpt>
<trkpt lat="46.82623669446167" lon="6.5992578888302615"><ele></ele><time>2014-6-22T14:25:19Z</time></trkpt>
<trkpt lat="46.826264828679" lon="6.59818273566255"><ele></ele><time>2014-6-22T14:25:22Z</time></trkpt>
<trkpt lat="46.82624300801836" lon="6.59765882217518"><ele></ele><time>2014-6-22T14:25:25Z</time></trkpt>
<trkpt lat="46.826309408716575" lon="6.5968976245441935"><ele></ele><time>2014-6-22T14:25:28Z</time></trkpt>
<trkpt lat="46.826428046266265" lon="6.595899698025745"><ele></ele><time>2014-6-22T14:25:31Z</time></trkpt>
<trkpt lat="46.82669328483641" lon="6.595266462726911"><ele></ele><time>2014-6-22T14:25:34Z</time></trkpt>
<trkpt lat="46.826885983464315" lon="6.594555712837463"><ele></ele><time>2014-6-22T14:25:37Z</time></trkpt>
<trkpt lat="46.826809791708456" lon="6.5939802166664165"><ele></ele><time>2014-6-22T14:25:40Z</time></trkpt>
<trkpt lat="46.82684192148623" lon="6.5934554573201"><ele></ele><time>2014-6-22T14:25:43Z</time></trkpt>
<trkpt lat="46.826983722021005" lon="6.593164901552984"><ele></ele><time>2014-6-22T14:25:46Z</time></trkpt>
<trkpt lat="46.82757237772889" lon="6.5924741666027264"><ele></ele><time>2014-6-22T14:25:49Z</time></trkpt>
<trkpt lat="46.82782269355327" lon="6.592260548372154"><ele></ele><time>2014-6-22T14:25:52Z</time></trkpt>
<trkpt lat="46.82793468098819" lon="6.592809280562431"><ele></ele><time>2014-6-22T14:25:55Z</time></trkpt>
<trkpt lat="46.827974898854464" lon="6.593385348649677"><ele></ele><time>2014-6-22T14:25:58Z</time></trkpt>
<trkpt lat="46.82788976195913" lon="6.594042012971256"><ele></ele><time>2014-6-22T14:26:1Z</time></trkpt>
<trkpt lat="46.827821649733686" lon="6.594567342934389"><ele></ele><time>2014-6-22T14:26:4Z</time></trkpt>
<trkpt lat="46.82800597000908" lon="6.595167380039516"><ele></ele><time>2014-6-22T14:26:7Z</time></trkpt>
<trkpt lat="46.82838740770135" lon="6.595659498701243"><ele></ele><time>2014-6-22T14:26:10Z</time></trkpt>
<trkpt lat="46.82851391303292" lon="6.595736170707315"><ele></ele><time>2014-6-22T14:26:13Z</time></trkpt>
<trkpt lat="46.8286002126483" lon="6.5952367660737075"><ele></ele><time>2014-6-22T14:26:16Z</time></trkpt>
<trkpt lat="46.82857530141055" lon="6.594293459012233"><ele></ele><time>2014-6-22T14:26:19Z</time></trkpt>
<trkpt lat="46.828607817579694" lon="6.5938211042096615"><ele></ele><time>2014-6-22T14:26:22Z</time></trkpt>
<trkpt lat="46.828567601906194" lon="6.593245029037902"><ele></ele><time>2014-6-22T14:26:25Z</time></trkpt>
<trkpt lat="46.82955357718989" lon="6.592757781008087"><ele></ele><time>2014-6-22T14:26:28Z</time></trkpt>
<trkpt lat="46.83222558233905" lon="6.591562559244682"><ele></ele><time>2014-6-22T14:26:31Z</time></trkpt>
<trkpt lat="46.83214995494313" lon="6.591065647745035"><ele></ele><time>2014-6-22T14:26:34Z</time></trkpt>
<trkpt lat="46.83211165751193" lon="6.590751661367836"><ele></ele><time>2014-6-22T14:26:37Z</time></trkpt>
<trkpt lat="46.832290590196266" lon="6.590617781821807"><ele></ele><time>2014-6-22T14:26:40Z</time></trkpt>
<trkpt lat="46.832796431335936" lon="6.590898234134617"><ele></ele><time>2014-6-22T14:26:43Z</time></trkpt>
<trkpt lat="46.833377126744466" lon="6.591570761677189"><ele></ele><time>2014-6-22T14:26:46Z</time></trkpt>
<trkpt lat="46.83374097553168" lon="6.5921156117127255"><ele></ele><time>2014-6-22T14:26:49Z</time></trkpt>
<trkpt lat="46.83405027386699" lon="6.59258267203511"><ele></ele><time>2014-6-22T14:26:52Z</time></trkpt>
<trkpt lat="46.83432243453662" lon="6.592893018311993"><ele></ele><time>2014-6-22T14:26:55Z</time></trkpt>
<trkpt lat="46.83492149306639" lon="6.593617733285839"><ele></ele><time>2014-6-22T14:26:58Z</time></trkpt>
<trkpt lat="46.83548456724005" lon="6.594343025362046"><ele></ele><time>2014-6-22T14:27:1Z</time></trkpt>
<trkpt lat="46.83610448857749" lon="6.595460708035714"><ele></ele><time>2014-6-22T14:27:4Z</time></trkpt>
<trkpt lat="46.83652382399097" lon="6.596214489007373"><ele></ele><time>2014-6-22T14:27:7Z</time></trkpt>
<trkpt lat="46.83670525792659" lon="6.596421407889689"><ele></ele><time>2014-6-22T14:27:10Z</time></trkpt>
<trkpt lat="46.83664936920914" lon="6.59616010047528"><ele></ele><time>2014-6-22T14:27:13Z</time></trkpt>
<trkpt lat="46.83673951049378" lon="6.596184915707449"><ele></ele><time>2014-6-22T14:27:16Z</time></trkpt>
<trkpt lat="46.83703118591989" lon="6.596704734823258"><ele></ele><time>2014-6-22T14:27:19Z</time></trkpt>
<trkpt lat="46.83739635185032" lon="6.597433161779104"><ele></ele><time>2014-6-22T14:27:22Z</time></trkpt>
<trkpt lat="46.837978348943096" lon="6.598289324433664"><ele></ele><time>2014-6-22T14:27:25Z</time></trkpt>
<trkpt lat="46.838344461127214" lon="6.599148852502492"><ele></ele><time>2014-6-22T14:27:28Z</time></trkpt>
<trkpt lat="46.83874750183023" lon="6.600138913575943"><ele></ele><time>2014-6-22T14:27:31Z</time></trkpt>
<trkpt lat="46.83900317951016" lon="6.60065933025194"><ele></ele><time>2014-6-22T14:27:34Z</time></trkpt>
<trkpt lat="46.83905982131762" lon="6.601025517219486"><ele></ele><time>2014-6-22T14:27:37Z</time></trkpt>
<trkpt lat="46.83922707105612" lon="6.601757059328867"><ele></ele><time>2014-6-22T14:27:40Z</time></trkpt>
<trkpt lat="46.83942972437404" lon="6.602409402199846"><ele></ele><time>2014-6-22T14:27:43Z</time></trkpt>
<trkpt lat="46.83956288865668" lon="6.603403670024965"><ele></ele><time>2014-6-22T14:27:46Z</time></trkpt>
<trkpt lat="46.83978295204731" lon="6.603977097159191"><ele></ele><time>2014-6-22T14:27:49Z</time></trkpt>
<trkpt lat="46.83991173285014" lon="6.604368400460217"><ele></ele><time>2014-6-22T14:27:52Z</time></trkpt>
<trkpt lat="46.83996817282176" lon="6.604708381160251"><ele></ele><time>2014-6-22T14:27:55Z</time></trkpt>
<trkpt lat="46.84005945199526" lon="6.604890510438647"><ele></ele><time>2014-6-22T14:27:58Z</time></trkpt>
<trkpt lat="46.84009277195353" lon="6.604522927004069"><ele></ele><time>2014-6-22T14:28:1Z</time></trkpt>
<trkpt lat="46.840127231299505" lon="6.604312641526451"><ele></ele><time>2014-6-22T14:28:4Z</time></trkpt>
<trkpt lat="46.840069649122576" lon="6.603815361996559"><ele></ele><time>2014-6-22T14:28:7Z</time></trkpt>
<trkpt lat="46.8400853562898" lon="6.603500488068806"><ele></ele><time>2014-6-22T14:28:10Z</time></trkpt>
<trkpt lat="46.8401010625922" lon="6.603185613957094"><ele></ele><time>2014-6-22T14:28:13Z</time></trkpt>
<trkpt lat="46.84020690782623" lon="6.602895567710847"><ele></ele><time>2014-6-22T14:28:16Z</time></trkpt>
<trkpt lat="46.84022261246703" lon="6.60258069271217"><ele></ele><time>2014-6-22T14:28:19Z</time></trkpt>
<trkpt lat="46.84022146952444" lon="6.60242339405723"><ele></ele><time>2014-6-22T14:28:22Z</time></trkpt>
<trkpt lat="46.84022032636602" lon="6.602266095408826"><ele></ele><time>2014-6-22T14:28:25Z</time></trkpt>
<trkpt lat="46.84038204470979" lon="6.60223737796947"><ele></ele><time>2014-6-22T14:28:28Z</time></trkpt>
<trkpt lat="46.84049227015317" lon="6.6025503095043145"><ele></ele><time>2014-6-22T14:28:31Z</time></trkpt>
<trkpt lat="46.8404949362771" lon="6.602917341558627"><ele></ele><time>2014-6-22T14:28:34Z</time></trkpt>
<trkpt lat="46.84062391098959" lon="6.603334864139482"><ele></ele><time>2014-6-22T14:28:37Z</time></trkpt>
<trkpt lat="46.8410036011492" lon="6.603591204336169"><ele></ele><time>2014-6-22T14:28:40Z</time></trkpt>
<trkpt lat="46.841327609198004" lon="6.60361242735414"><ele></ele><time>2014-6-22T14:28:43Z</time></trkpt>
<trkpt lat="46.841454489453" lon="6.603741570529058"><ele></ele><time>2014-6-22T14:28:46Z</time></trkpt>
<trkpt lat="46.84169083005941" lon="6.604078787495603"><ele></ele><time>2014-6-22T14:28:49Z</time></trkpt>
<trkpt lat="46.841945729677725" lon="6.604494382109179"><ele></ele><time>2014-6-22T14:28:52Z</time></trkpt>
<trkpt lat="46.842145708371014" lon="6.604779724741745"><ele></ele><time>2014-6-22T14:28:55Z</time></trkpt>
<trkpt lat="46.84225516721297" lon="6.604987801948325"><ele></ele><time>2014-6-22T14:28:58Z</time></trkpt>
<trkpt lat="46.84225725599195" lon="6.6052761937929825"><ele></ele><time>2014-6-22T14:29:1Z</time></trkpt>
<trkpt lat="46.84216996398323" lon="6.605644621800453"><ele></ele><time>2014-6-22T14:29:4Z</time></trkpt>
<trkpt lat="46.84240478122378" lon="6.605772111457254"><ele></ele><time>2014-6-22T14:29:7Z</time></trkpt>
<trkpt lat="46.84256669015152" lon="6.6057696209687276"><ele></ele><time>2014-6-22T14:29:10Z</time></trkpt>
<trkpt lat="46.84287403588007" lon="6.605974658616432"><ele></ele><time>2014-6-22T14:29:13Z</time></trkpt>
<trkpt lat="46.8431645291388" lon="6.606337282504144"><ele></ele><time>2014-6-22T14:29:16Z</time></trkpt>
<trkpt lat="46.843529065239984" lon="6.606987203345893"><ele></ele><time>2014-6-22T14:29:19Z</time></trkpt>
<trkpt lat="46.84376653246168" lon="6.607481756607081"><ele></ele><time>2014-6-22T14:29:22Z</time></trkpt>
<trkpt lat="46.84398600766062" lon="6.607976590216264"><ele></ele><time>2014-6-22T14:29:25Z</time></trkpt>
<trkpt lat="46.844262097539485" lon="6.6088376583453075"><ele></ele><time>2014-6-22T14:29:28Z</time></trkpt>
<trkpt lat="46.844576615190896" lon="6.610039026040841"><ele></ele><time>2014-6-22T14:29:31Z</time></trkpt>
<trkpt lat="46.844632094795735" lon="6.610247949016261"><ele></ele><time>2014-6-22T14:29:34Z</time></trkpt>
<trkpt lat="46.84510417084105" lon="6.610843826151939"><ele></ele><time>2014-6-22T14:29:37Z</time></trkpt>
<trkpt lat="46.84534105594817" lon="6.611259753955902"><ele></ele><time>2014-6-22T14:29:40Z</time></trkpt>
<trkpt lat="46.84547150715318" lon="6.611887086213167"><ele></ele><time>2014-6-22T14:29:43Z</time></trkpt>
<trkpt lat="46.845743238641965" lon="6.6121451573576175"><ele></ele><time>2014-6-22T14:29:46Z</time></trkpt>
<trkpt lat="46.8461026598384" lon="6.612087226452774"><ele></ele><time>2014-6-22T14:29:49Z</time></trkpt>
<trkpt lat="46.84638993312516" lon="6.612004173910943"><ele></ele><time>2014-6-22T14:29:52Z</time></trkpt>
<trkpt lat="46.84651718041695" lon="6.612185788033299"><ele></ele><time>2014-6-22T14:29:55Z</time></trkpt>
<trkpt lat="46.846592151619774" lon="6.612604202790826"><ele></ele><time>2014-6-22T14:29:58Z</time></trkpt>
<trkpt lat="46.84672184325491" lon="6.61312667429858"><ele></ele><time>2014-6-22T14:30:1Z</time></trkpt>
<trkpt lat="46.847052051903404" lon="6.6140132102728"><ele></ele><time>2014-6-22T14:30:4Z</time></trkpt>
<trkpt lat="46.847492632057076" lon="6.6152389751596035"><ele></ele><time>2014-6-22T14:30:7Z</time></trkpt>
<trkpt lat="46.848057817117905" lon="6.6162793057165645"><ele></ele><time>2014-6-22T14:30:10Z</time></trkpt>
<trkpt lat="46.84829655457338" lon="6.616957484347393"><ele></ele><time>2014-6-22T14:30:13Z</time></trkpt>
<trkpt lat="46.848496689216326" lon="6.617269127328347"><ele></ele><time>2014-6-22T14:30:16Z</time></trkpt>
<trkpt lat="46.84858701291113" lon="6.617320203877062"><ele></ele><time>2014-6-22T14:30:19Z</time></trkpt>
<trkpt lat="46.84849144768816" lon="6.616534952959956"><ele></ele><time>2014-6-22T14:30:22Z</time></trkpt>
<trkpt lat="46.848341532475516" lon="6.615698084212514"><ele></ele><time>2014-6-22T14:30:25Z</time></trkpt>
<trkpt lat="46.84824651907145" lon="6.614991500897556"><ele></ele><time>2014-6-22T14:30:28Z</time></trkpt>
<trkpt lat="46.84809771943625" lon="6.614311962104263"><ele></ele><time>2014-6-22T14:30:31Z</time></trkpt>
<trkpt lat="46.847948351909096" lon="6.613553766348865"><ele></ele><time>2014-6-22T14:30:34Z</time></trkpt>
<trkpt lat="46.847799355626975" lon="6.612848015114753"><ele></ele><time>2014-6-22T14:30:37Z</time></trkpt>
<trkpt lat="46.84766928623849" lon="6.6122730936393985"><ele></ele><time>2014-6-22T14:30:40Z</time></trkpt>
<trkpt lat="46.847665143156995" lon="6.611696251557051"><ele></ele><time>2014-6-22T14:30:43Z</time></trkpt>
<trkpt lat="46.84773427619835" lon="6.611301850584357"><ele></ele><time>2014-6-22T14:30:46Z</time></trkpt>
<trkpt lat="46.84771440123566" lon="6.611039924331944"><ele></ele><time>2014-6-22T14:30:49Z</time></trkpt>
<trkpt lat="46.84742467743863" lon="6.610782124386482"><ele></ele><time>2014-6-22T14:30:52Z</time></trkpt>
<trkpt lat="46.84717187602237" lon="6.610654876141308"><ele></ele><time>2014-6-22T14:30:55Z</time></trkpt>
<trkpt lat="46.84704311678353" lon="6.610263505135141"><ele></ele><time>2014-6-22T14:30:58Z</time></trkpt>
<trkpt lat="46.84682100734341" lon="6.609401558696018"><ele></ele><time>2014-6-22T14:31:1Z</time></trkpt>
<trkpt lat="46.846655318976744" lon="6.608879646585526"><ele></ele><time>2014-6-22T14:31:4Z</time></trkpt>
<trkpt lat="46.846253111109526" lon="6.607994252543776"><ele></ele><time>2014-6-22T14:31:7Z</time></trkpt>
<trkpt lat="46.845869454547746" lon="6.607187253030622"><ele></ele><time>2014-6-22T14:31:10Z</time></trkpt>
<trkpt lat="46.84557460393868" lon="6.606221567987739"><ele></ele><time>2014-6-22T14:31:13Z</time></trkpt>
<trkpt lat="46.84533523350231" lon="6.605464814286725"><ele></ele><time>2014-6-22T14:31:16Z</time></trkpt>
<trkpt lat="46.84522330687294" lon="6.604915878734026"><ele></ele><time>2014-6-22T14:31:19Z</time></trkpt>
<trkpt lat="46.845073306805894" lon="6.604079092978477"><ele></ele><time>2014-6-22T14:31:22Z</time></trkpt>
<trkpt lat="46.8446333688257" lon="6.602958348586572"><ele></ele><time>2014-6-22T14:31:25Z</time></trkpt>
<trkpt lat="46.84443109980987" lon="6.602358377658626"><ele></ele><time>2014-6-22T14:31:28Z</time></trkpt>
<trkpt lat="46.844318586323574" lon="6.601730802455651"><ele></ele><time>2014-6-22T14:31:31Z</time></trkpt>
<trkpt lat="46.84499297582073" lon="6.602926576390264"><ele></ele><time>2014-6-22T14:31:34Z</time></trkpt>
<trkpt lat="46.84570371276274" lon="6.604174263889745"><ele></ele><time>2014-6-22T14:31:37Z</time></trkpt>
<trkpt lat="46.84617752981544" lon="6.6050060738297045"><ele></ele><time>2014-6-22T14:31:40Z</time></trkpt>
<trkpt lat="46.84650514467174" lon="6.605525478026981"><ele></ele><time>2014-6-22T14:31:43Z</time></trkpt>
<trkpt lat="46.84701474201188" lon="6.606330539351561"><ele></ele><time>2014-6-22T14:31:46Z</time></trkpt>
<trkpt lat="46.84745218474066" lon="6.6071105010798306"><ele></ele><time>2014-6-22T14:31:49Z</time></trkpt>
<trkpt lat="46.847834327565" lon="6.60770776244753"><ele></ele><time>2014-6-22T14:31:52Z</time></trkpt>
<trkpt lat="46.84819772068537" lon="6.6082004268237675"><ele></ele><time>2014-6-22T14:31:55Z</time></trkpt>
<trkpt lat="46.84857910154883" lon="6.608692822066157"><ele></ele><time>2014-6-22T14:31:58Z</time></trkpt>
<trkpt lat="46.84876164676501" lon="6.609057152922221"><ele></ele><time>2014-6-22T14:32:1Z</time></trkpt>
<trkpt lat="46.84887147563561" lon="6.60931770569391"><ele></ele><time>2014-6-22T14:32:4Z</time></trkpt>
<trkpt lat="46.84899797153711" lon="6.609394438908153"><ele></ele><time>2014-6-22T14:32:7Z</time></trkpt>
<trkpt lat="46.84901501676714" lon="6.609263059657205"><ele></ele><time>2014-6-22T14:32:10Z</time></trkpt>
<trkpt lat="46.848793467254474" lon="6.608479747694497"><ele></ele><time>2014-6-22T14:32:13Z</time></trkpt>
<trkpt lat="46.84840886760855" lon="6.607541604486345"><ele></ele><time>2014-6-22T14:32:16Z</time></trkpt>
<trkpt lat="46.848225370388775" lon="6.607046179393405"><ele></ele><time>2014-6-22T14:32:19Z</time></trkpt>
<trkpt lat="46.847970480204836" lon="6.606630524293299"><ele></ele><time>2014-6-22T14:32:22Z</time></trkpt>
<trkpt lat="46.847658583868835" lon="6.6057961817792705"><ele></ele><time>2014-6-22T14:32:25Z</time></trkpt>
<trkpt lat="46.84738266118812" lon="6.604961294886352"><ele></ele><time>2014-6-22T14:32:28Z</time></trkpt>
<trkpt lat="46.84703344197314" lon="6.603943987382796"><ele></ele><time>2014-6-22T14:32:31Z</time></trkpt>
<trkpt lat="46.84670372653769" lon="6.603136172128057"><ele></ele><time>2014-6-22T14:32:34Z</time></trkpt>
<trkpt lat="46.84637305267348" lon="6.6021972695872515"><ele></ele><time>2014-6-22T14:32:37Z</time></trkpt>
<trkpt lat="46.84618896027315" lon="6.601623223357354"><ele></ele><time>2014-6-22T14:32:40Z</time></trkpt>
<trkpt lat="46.84598801995955" lon="6.601206774806896"><ele></ele><time>2014-6-22T14:32:43Z</time></trkpt>
<trkpt lat="46.84571244575239" lon="6.6004243754648435"><ele></ele><time>2014-6-22T14:32:46Z</time></trkpt>
<trkpt lat="46.84563666580503" lon="6.599901108179875"><ele></ele><time>2014-6-22T14:32:49Z</time></trkpt>
<trkpt lat="46.845271515898034" lon="6.599172553148266"><ele></ele><time>2014-6-22T14:32:52Z</time></trkpt>
<trkpt lat="46.84490712697152" lon="6.598548882810786"><ele></ele><time>2014-6-22T14:32:55Z</time></trkpt>
<trkpt lat="46.844469625878716" lon="6.597769027342703"><ele></ele><time>2014-6-22T14:32:58Z</time></trkpt>
<trkpt lat="46.843906190463976" lon="6.596991142134891"><ele></ele><time>2014-6-22T14:33:1Z</time></trkpt>
<trkpt lat="46.84350561800696" lon="6.596341844040637"><ele></ele><time>2014-6-22T14:33:4Z</time></trkpt>
<trkpt lat="46.842996142412645" lon="6.595563147269196"><ele></ele><time>2014-6-22T14:33:7Z</time></trkpt>
<trkpt lat="46.8426483779274" lon="6.594755724132194"><ele></ele><time>2014-6-22T14:33:10Z</time></trkpt>
<trkpt lat="46.842337357185166" lon="6.594052619846583"><ele></ele><time>2014-6-22T14:33:13Z</time></trkpt>
<trkpt lat="46.84191762263011" lon="6.593246339902726"><ele></ele><time>2014-6-22T14:33:16Z</time></trkpt>
<trkpt lat="46.84140774033817" lon="6.592415261342694"><ele></ele><time>2014-6-22T14:33:19Z</time></trkpt>
<trkpt lat="46.841098248669155" lon="6.591921921384978"><ele></ele><time>2014-6-22T14:33:22Z</time></trkpt>
<trkpt lat="46.84091449078558" lon="6.5914003998606745"><ele></ele><time>2014-6-22T14:33:25Z</time></trkpt>
<trkpt lat="46.84078450691877" lon="6.590851820170394"><ele></ele><time>2014-6-22T14:33:28Z</time></trkpt>
<trkpt lat="46.8406910799322" lon="6.590381329264752"><ele></ele><time>2014-6-22T14:33:31Z</time></trkpt>
<trkpt lat="46.840492225230435" lon="6.590253346904589"><ele></ele><time>2014-6-22T14:33:34Z</time></trkpt>
<trkpt lat="46.840293177057745" lon="6.590099149054096"><ele></ele><time>2014-6-22T14:33:37Z</time></trkpt>
<trkpt lat="46.84012933487161" lon="6.589839522945535"><ele></ele><time>2014-6-22T14:33:40Z</time></trkpt>
<trkpt lat="46.84005428054498" lon="6.589421189959786"><ele></ele><time>2014-6-22T14:33:43Z</time></trkpt>
<trkpt lat="46.840012687368265" lon="6.588661481702081"><ele></ele><time>2014-6-22T14:33:46Z</time></trkpt>
<trkpt lat="46.83993607854208" lon="6.588033421221125"><ele></ele><time>2014-6-22T14:33:49Z</time></trkpt>
<trkpt lat="46.839824068392005" lon="6.587484576785196"><ele></ele><time>2014-6-22T14:33:52Z</time></trkpt>
<trkpt lat="46.839512808872534" lon="6.586755335211292"><ele></ele><time>2014-6-22T14:33:55Z</time></trkpt>
<trkpt lat="46.83938357957794" lon="6.586311644884673"><ele></ele><time>2014-6-22T14:33:58Z</time></trkpt>
<trkpt lat="46.83916595352858" lon="6.586079100384428"><ele></ele><time>2014-6-22T14:34:1Z</time></trkpt>
<trkpt lat="46.83907250693868" lon="6.585608631861827"><ele></ele><time>2014-6-22T14:34:4Z</time></trkpt>
<trkpt lat="46.838960679645496" lon="6.585086017016791"><ele></ele><time>2014-6-22T14:34:7Z</time></trkpt>
<trkpt lat="46.838832027578746" lon="6.584720982347492"><ele></ele><time>2014-6-22T14:34:10Z</time></trkpt>
<trkpt lat="46.83875734385642" lon="6.584355097877691"><ele></ele><time>2014-6-22T14:34:13Z</time></trkpt>
<trkpt lat="46.838775431011875" lon="6.584367921868473"><ele></ele><time>2014-6-22T14:34:16Z</time></trkpt>
<trkpt lat="46.8387657473765" lon="6.5843987951583625"><ele></ele><time>2014-6-22T14:34:19Z</time></trkpt>
<trkpt lat="46.838599272084686" lon="6.583785279574595"><ele></ele><time>2014-6-22T14:34:22Z</time></trkpt>
<trkpt lat="46.838487443970045" lon="6.583262670826374"><ele></ele><time>2014-6-22T14:34:25Z</time></trkpt>
<trkpt lat="46.838255953953905" lon="6.582374894092092"><ele></ele><time>2014-6-22T14:34:28Z</time></trkpt>
<trkpt lat="46.83802650320765" lon="6.581762385208609"><ele></ele><time>2014-6-22T14:34:31Z</time></trkpt>
<trkpt lat="46.83772382212899" lon="6.580980620871677"><ele></ele><time>2014-6-22T14:34:34Z</time></trkpt>
<trkpt lat="46.83752320249397" lon="6.58061673959413"><ele></ele><time>2014-6-22T14:34:37Z</time></trkpt>
<trkpt lat="46.83735592594409" lon="6.579898390081329"><ele></ele><time>2014-6-22T14:34:40Z</time></trkpt>
<trkpt lat="46.83726060444414" lon="6.5791789048334275"><ele></ele><time>2014-6-22T14:34:43Z</time></trkpt>
<trkpt lat="46.83716263736448" lon="6.57810552191385"><ele></ele><time>2014-6-22T14:34:46Z</time></trkpt>
<trkpt lat="46.8369775510382" lon="6.5774136853579295"><ele></ele><time>2014-6-22T14:34:49Z</time></trkpt>
<trkpt lat="46.83677476463428" lon="6.576761461364409"><ele></ele><time>2014-6-22T14:34:52Z</time></trkpt>
<trkpt lat="46.83656199884727" lon="6.575978312653465"><ele></ele><time>2014-6-22T14:34:55Z</time></trkpt>
<trkpt lat="46.83644601193915" lon="6.574905235893368"><ele></ele><time>2014-6-22T14:34:58Z</time></trkpt>
<trkpt lat="46.836322887973346" lon="6.574081344012886"><ele></ele><time>2014-6-22T14:35:1Z</time></trkpt>
<trkpt lat="46.83609240916062" lon="6.573337820860756"><ele></ele><time>2014-6-22T14:35:4Z</time></trkpt>
<trkpt lat="46.8356797616523" lon="6.57229571437747"><ele></ele><time>2014-6-22T14:35:7Z</time></trkpt>
<trkpt lat="46.83526611838295" lon="6.57112255441228"><ele></ele><time>2014-6-22T14:35:10Z</time></trkpt>
<trkpt lat="46.83512675425547" lon="6.570534901479286"><ele></ele><time>2014-6-22T14:35:13Z</time></trkpt>
<trkpt lat="46.83482923635583" lon="6.569255038365191"><ele></ele><time>2014-6-22T14:35:16Z</time></trkpt>
<trkpt lat="46.834778130198735" lon="6.568443136389308"><ele></ele><time>2014-6-22T14:35:19Z</time></trkpt>
<trkpt lat="46.83470072670265" lon="6.567723416862593"><ele></ele><time>2014-6-22T14:35:22Z</time></trkpt>
<trkpt lat="46.83447010753966" lon="6.566966836465024"><ele></ele><time>2014-6-22T14:35:25Z</time></trkpt>
<trkpt lat="46.83415211267676" lon="6.566552482536843"><ele></ele><time>2014-6-22T14:35:28Z</time></trkpt>
<trkpt lat="46.83370087860694" lon="6.566363115223047"><ele></ele><time>2014-6-22T14:35:31Z</time></trkpt>
<trkpt lat="46.83336707429436" lon="6.5662374025712005"><ele></ele><time>2014-6-22T14:35:34Z</time></trkpt>
<trkpt lat="46.83293432558768" lon="6.566113283081461"><ele></ele><time>2014-6-22T14:35:37Z</time></trkpt>
<trkpt lat="46.832660210352245" lon="6.565554052897205"><ele></ele><time>2014-6-22T14:35:40Z</time></trkpt>
<trkpt lat="46.83242540248212" lon="6.564247048282756"><ele></ele><time>2014-6-22T14:35:43Z</time></trkpt>
<trkpt lat="46.83209843953341" lon="6.562653171743377"><ele></ele><time>2014-6-22T14:35:46Z</time></trkpt>
<trkpt lat="46.831996028215464" lon="6.561016357836824"><ele></ele><time>2014-6-22T14:35:49Z</time></trkpt>
<trkpt lat="46.83207898850017" lon="6.560097471968506"><ele></ele><time>2014-6-22T14:35:52Z</time></trkpt>
<trkpt lat="46.83220741602145" lon="6.5592433849301734"><ele></ele><time>2014-6-22T14:35:55Z</time></trkpt>
<trkpt lat="46.83223210056793" lon="6.5589415051994555"><ele></ele><time>2014-6-22T14:35:58Z</time></trkpt>
<trkpt lat="46.83211096412566" lon="6.558392943240277"><ele></ele><time>2014-6-22T14:36:1Z</time></trkpt>
<trkpt lat="46.8320906718245" lon="6.558091793790715"><ele></ele><time>2014-6-22T14:36:4Z</time></trkpt>
<trkpt lat="46.83218062104412" lon="6.55809033352509"><ele></ele><time>2014-6-22T14:36:7Z</time></trkpt>
<trkpt lat="46.83227287272695" lon="6.558390315661596"><ele></ele><time>2014-6-22T14:36:10Z</time></trkpt>
<trkpt lat="46.83265065945265" lon="6.558384184585048"><ele></ele><time>2014-6-22T14:36:13Z</time></trkpt>
<trkpt lat="46.833322775804476" lon="6.558045574846639"><ele></ele><time>2014-6-22T14:36:16Z</time></trkpt>
<trkpt lat="46.83393112528134" lon="6.557603126593929"><ele></ele><time>2014-6-22T14:36:19Z</time></trkpt>
<trkpt lat="46.8344683154591" lon="6.5572666916554585"><ele></ele><time>2014-6-22T14:36:22Z</time></trkpt>
<trkpt lat="46.8345760540438" lon="6.557238724112992"><ele></ele><time>2014-6-22T14:36:25Z</time></trkpt>
<trkpt lat="46.83516172588769" lon="6.5573602915630165"><ele></ele><time>2014-6-22T14:36:28Z</time></trkpt>
<trkpt lat="46.83570162138148" lon="6.557377736156227"><ele></ele><time>2014-6-22T14:36:31Z</time></trkpt>
<trkpt lat="46.83631327577032" lon="6.557367797533511"><ele></ele><time>2014-6-22T14:36:34Z</time></trkpt>
<trkpt lat="46.83626860179732" lon="6.557407849805357"><ele></ele><time>2014-6-22T14:36:37Z</time></trkpt>
<trkpt lat="46.83662960080753" lon="6.557559290712594"><ele></ele><time>2014-6-22T14:36:40Z</time></trkpt>
<trkpt lat="46.837035373851045" lon="6.557683788440323"><ele></ele><time>2014-6-22T14:36:43Z</time></trkpt>
<trkpt lat="46.83755038765107" lon="6.557976932146365"><ele></ele><time>2014-6-22T14:36:46Z</time></trkpt>
<trkpt lat="46.83829946871119" lon="6.558292500442141"><ele></ele><time>2014-6-22T14:36:49Z</time></trkpt>
<trkpt lat="46.83912950309062" lon="6.558606763887492"><ele></ele><time>2014-6-22T14:36:52Z</time></trkpt>
<trkpt lat="46.84005818051534" lon="6.558880107769535"><ele></ele><time>2014-6-22T14:36:55Z</time></trkpt>
<trkpt lat="46.84061766565282" lon="6.5591070089057215"><ele></ele><time>2014-6-22T14:36:58Z</time></trkpt>
<trkpt lat="46.84151965691957" lon="6.559420131793473"><ele></ele><time>2014-6-22T14:37:1Z</time></trkpt>
<trkpt lat="46.84208753611326" lon="6.55956824742539"><ele></ele><time>2014-6-22T14:37:4Z</time></trkpt>
<trkpt lat="46.84231340845661" lon="6.5596956886087305"><ele></ele><time>2014-6-22T14:37:7Z</time></trkpt>
<trkpt lat="46.84267650227947" lon="6.560122445008911"><ele></ele><time>2014-6-22T14:37:10Z</time></trkpt>
<trkpt lat="46.84326716260203" lon="6.560899505447645"><ele></ele><time>2014-6-22T14:37:13Z</time></trkpt>
<trkpt lat="46.843721896674595" lon="6.561547674980499"><ele></ele><time>2014-6-22T14:37:16Z</time></trkpt>
<trkpt lat="46.84390378927233" lon="6.561806945853883"><ele></ele><time>2014-6-22T14:37:19Z</time></trkpt>
<trkpt lat="46.844237299010516" lon="6.561893328393861"><ele></ele><time>2014-6-22T14:37:22Z</time></trkpt>
<trkpt lat="46.84485194328999" lon="6.562276717143519"><ele></ele><time>2014-6-22T14:37:25Z</time></trkpt>
<trkpt lat="46.84541012624149" lon="6.5623332516300446"><ele></ele><time>2014-6-22T14:37:28Z</time></trkpt>
<trkpt lat="46.84538545445085" lon="6.56234090898861"><ele></ele><time>2014-6-22T14:37:31Z</time></trkpt>
<trkpt lat="46.84558213452112" lon="6.562180373978687"><ele></ele><time>2014-6-22T14:37:34Z</time></trkpt>
<trkpt lat="46.84592232909293" lon="6.561965056134276"><ele></ele><time>2014-6-22T14:37:37Z</time></trkpt>
<trkpt lat="46.84606443689849" lon="6.561726739271549"><ele></ele><time>2014-6-22T14:37:40Z</time></trkpt>
<trkpt lat="46.846062225464415" lon="6.561438327290624"><ele></ele><time>2014-6-22T14:37:43Z</time></trkpt>
<trkpt lat="46.84586071986027" lon="6.560969606306232"><ele></ele><time>2014-6-22T14:37:46Z</time></trkpt>
<trkpt lat="46.84560645122083" lon="6.560659083335608"><ele></ele><time>2014-6-22T14:37:49Z</time></trkpt>
<trkpt lat="46.84533519869068" lon="6.560479951319733"><ele></ele><time>2014-6-22T14:37:52Z</time></trkpt>
<trkpt lat="46.84515248426406" lon="6.560115821965788"><ele></ele><time>2014-6-22T14:37:55Z</time></trkpt>
<trkpt lat="46.84480463839529" lon="6.559334839593396"><ele></ele><time>2014-6-22T14:37:58Z</time></trkpt>
<trkpt lat="46.844293670514205" lon="6.558399203433169"><ele></ele><time>2014-6-22T14:38:1Z</time></trkpt>
<trkpt lat="46.84396622540124" lon="6.557932569064106"><ele></ele><time>2014-6-22T14:38:4Z</time></trkpt>
<trkpt lat="46.84347606424261" lon="6.557363718128851"><ele></ele><time>2014-6-22T14:38:7Z</time></trkpt>
<trkpt lat="46.84307665658097" lon="6.556898275560066"><ele></ele><time>2014-6-22T14:38:10Z</time></trkpt>
<trkpt lat="46.842550713315084" lon="6.5563562505652975"><ele></ele><time>2014-6-22T14:38:13Z</time></trkpt>
<trkpt lat="46.842279656206784" lon="6.556203367810387"><ele></ele><time>2014-6-22T14:38:16Z</time></trkpt>
<trkpt lat="46.84200637313471" lon="6.555762096574733"><ele></ele><time>2014-6-22T14:38:19Z</time></trkpt>
<trkpt lat="46.84173288587157" lon="6.555294612680658"><ele></ele><time>2014-6-22T14:38:22Z</time></trkpt>
<trkpt lat="46.84120855555818" lon="6.554962351935455"><ele></ele><time>2014-6-22T14:38:25Z</time></trkpt>
<trkpt lat="46.84104421830109" lon="6.554650407462826"><ele></ele><time>2014-6-22T14:38:28Z</time></trkpt>
<trkpt lat="46.84078891876085" lon="6.554208858748715"><ele></ele><time>2014-6-22T14:38:31Z</time></trkpt>
<trkpt lat="46.840280140687845" lon="6.5535617216985065"><ele></ele><time>2014-6-22T14:38:34Z</time></trkpt>
<trkpt lat="46.8397893484869" lon="6.552914300964235"><ele></ele><time>2014-6-22T14:38:37Z</time></trkpt>
<trkpt lat="46.83944307863972" lon="6.5523431710225974"><ele></ele><time>2014-6-22T14:38:40Z</time></trkpt>
<trkpt lat="46.838985208349776" lon="6.5513019420183705"><ele></ele><time>2014-6-22T14:38:43Z</time></trkpt>
<trkpt lat="46.83865610582073" lon="6.550625671844939"><ele></ele><time>2014-6-22T14:38:46Z</time></trkpt>
<trkpt lat="46.838128910345056" lon="6.54992646045842"><ele></ele><time>2014-6-22T14:38:49Z</time></trkpt>
<trkpt lat="46.83762051556227" lon="6.549331826083115"><ele></ele><time>2014-6-22T14:38:52Z</time></trkpt>
<trkpt lat="46.837165270361176" lon="6.548631451484758"><ele></ele><time>2014-6-22T14:38:55Z</time></trkpt>
<trkpt lat="46.836818366554425" lon="6.547981732772655"><ele></ele><time>2014-6-22T14:38:58Z</time></trkpt>
<trkpt lat="46.83645449093418" lon="6.547463392889909"><ele></ele><time>2014-6-22T14:39:1Z</time></trkpt>
<trkpt lat="46.8362725522362" lon="6.547204225576109"><ele></ele><time>2014-6-22T14:39:4Z</time></trkpt>
<trkpt lat="46.8358367148122" lon="6.546687088109503"><ele></ele><time>2014-6-22T14:39:7Z</time></trkpt>
<trkpt lat="46.83523815061797" lon="6.546067786558971"><ele></ele><time>2014-6-22T14:39:10Z</time></trkpt>
<trkpt lat="46.834894098001655" lon="6.545785100424254"><ele></ele><time>2014-6-22T14:39:13Z</time></trkpt>
<trkpt lat="46.834982817738556" lon="6.545626326163195"><ele></ele><time>2014-6-22T14:39:16Z</time></trkpt>
<trkpt lat="46.83487221879002" lon="6.545287337212549"><ele></ele><time>2014-6-22T14:39:19Z</time></trkpt>
<trkpt lat="46.83465327174899" lon="6.544897713653053"><ele></ele><time>2014-6-22T14:39:22Z</time></trkpt>
<trkpt lat="46.834522016315674" lon="6.5442182503204"><ele></ele><time>2014-6-22T14:39:25Z</time></trkpt>
<trkpt lat="46.83426277787347" lon="6.5432787488648225"><ele></ele><time>2014-6-22T14:39:28Z</time></trkpt>
<trkpt lat="46.83411085265789" lon="6.542258819802831"><ele></ele><time>2014-6-22T14:39:31Z</time></trkpt>
<trkpt lat="46.83403375582009" lon="6.5416046840658275"><ele></ele><time>2014-6-22T14:39:34Z</time></trkpt>
<trkpt lat="46.833902480808405" lon="6.540925236576486"><ele></ele><time>2014-6-22T14:39:37Z</time></trkpt>
<trkpt lat="46.83388160981138" lon="6.54055855080317"><ele></ele><time>2014-6-22T14:39:40Z</time></trkpt>
<trkpt lat="46.83402449685016" lon="6.540425084041925"><ele></ele><time>2014-6-22T14:39:43Z</time></trkpt>
<trkpt lat="46.834059034573734" lon="6.540240990500981"><ele></ele><time>2014-6-22T14:39:46Z</time></trkpt>
<trkpt lat="46.83400238829651" lon="6.539901117727685"><ele></ele><time>2014-6-22T14:39:49Z</time></trkpt>
<trkpt lat="46.834019697032076" lon="6.539944862026063"><ele></ele><time>2014-6-22T14:39:52Z</time></trkpt>
<trkpt lat="46.83394589806616" lon="6.539710136299778"><ele></ele><time>2014-6-22T14:39:55Z</time></trkpt>
<trkpt lat="46.83383571001851" lon="6.539423581602843"><ele></ele><time>2014-6-22T14:39:58Z</time></trkpt>
<trkpt lat="46.83383581227452" lon="6.539436688140751"><ele></ele><time>2014-6-22T14:40:1Z</time></trkpt>
<trkpt lat="46.833899185558785" lon="6.539488070363854"><ele></ele><time>2014-6-22T14:40:4Z</time></trkpt>
<trkpt lat="46.83342582499949" lon="6.538774971093281"><ele></ele><time>2014-6-22T14:40:7Z</time></trkpt>
<trkpt lat="46.83310660204984" lon="6.538216621370271"><ele></ele><time>2014-6-22T14:40:10Z</time></trkpt>
<trkpt lat="46.83278870820623" lon="6.537828659898984"><ele></ele><time>2014-6-22T14:40:13Z</time></trkpt>
<trkpt lat="46.832624033698906" lon="6.537477480714375"><ele></ele><time>2014-6-22T14:40:16Z</time></trkpt>
<trkpt lat="46.83275331848957" lon="6.536754393809158"><ele></ele><time>2014-6-22T14:40:19Z</time></trkpt>
<trkpt lat="46.832731225034465" lon="6.536230442391346"><ele></ele><time>2014-6-22T14:40:22Z</time></trkpt>
<trkpt lat="46.83247577536354" lon="6.535775916156762"><ele></ele><time>2014-6-22T14:40:25Z</time></trkpt>
<trkpt lat="46.83202140892221" lon="6.535193629429909"><ele></ele><time>2014-6-22T14:40:28Z</time></trkpt>
<trkpt lat="46.831564468870994" lon="6.5342837030791525"><ele></ele><time>2014-6-22T14:40:31Z</time></trkpt>
<trkpt lat="46.83122517576392" lon="6.533463581499728"><ele></ele><time>2014-6-22T14:40:34Z</time></trkpt>
<trkpt lat="46.83105760390064" lon="6.532745461971122"><ele></ele><time>2014-6-22T14:40:37Z</time></trkpt>
<trkpt lat="46.83103446126003" lon="6.532090470209931"><ele></ele><time>2014-6-22T14:40:40Z</time></trkpt>
<trkpt lat="46.83077538409562" lon="6.53117727556265"><ele></ele><time>2014-6-22T14:40:43Z</time></trkpt>
<trkpt lat="46.830362870033824" lon="6.5302011225423975"><ele></ele><time>2014-6-22T14:40:46Z</time></trkpt>
<trkpt lat="46.829860915872935" lon="6.529292020551419"><ele></ele><time>2014-6-22T14:40:49Z</time></trkpt>
<trkpt lat="46.82974966721174" lon="6.528874453560146"><ele></ele><time>2014-6-22T14:40:52Z</time></trkpt>
<trkpt lat="46.82935688381793" lon="6.528120826883846"><ele></ele><time>2014-6-22T14:40:55Z</time></trkpt>
<trkpt lat="46.82892770136863" lon="6.527315394449996"><ele></ele><time>2014-6-22T14:40:58Z</time></trkpt>
<trkpt lat="46.828380231106685" lon="6.5263415740442"><ele></ele><time>2014-6-22T14:41:1Z</time></trkpt>
<trkpt lat="46.82812494974875" lon="6.525913341536781"><ele></ele><time>2014-6-22T14:41:4Z</time></trkpt>
<trkpt lat="46.82756238671313" lon="6.525306792579024"><ele></ele><time>2014-6-22T14:41:7Z</time></trkpt>
<trkpt lat="46.82685475888959" lon="6.524558528588688"><ele></ele><time>2014-6-22T14:41:10Z</time></trkpt>
<trkpt lat="46.826428880066054" lon="6.524172512564852"><ele></ele><time>2014-6-22T14:41:13Z</time></trkpt>
<trkpt lat="46.825944867697686" lon="6.523263229322723"><ele></ele><time>2014-6-22T14:41:16Z</time></trkpt>
<trkpt lat="46.825667209314005" lon="6.522284944517967"><ele></ele><time>2014-6-22T14:41:19Z</time></trkpt>
<trkpt lat="46.8256154577772" lon="6.521433911292071"><ele></ele><time>2014-6-22T14:41:22Z</time></trkpt>
<trkpt lat="46.8253650816847" lon="6.5204944983510185"><ele></ele><time>2014-6-22T14:41:25Z</time></trkpt>
<trkpt lat="46.82494383487635" lon="6.519566869588461"><ele></ele><time>2014-6-22T14:41:28Z</time></trkpt>
<trkpt lat="46.82474364383556" lon="6.519281934028646"><ele></ele><time>2014-6-22T14:41:31Z</time></trkpt>
<trkpt lat="46.824918171026496" lon="6.518601678745382"><ele></ele><time>2014-6-22T14:41:34Z</time></trkpt>
<trkpt lat="46.82493856062727" lon="6.517775647655281"><ele></ele><time>2014-6-22T14:41:37Z</time></trkpt>
<trkpt lat="46.82476648701988" lon="6.516507280160127"><ele></ele><time>2014-6-22T14:41:40Z</time></trkpt>
<trkpt lat="46.824577144740964" lon="6.5153309567594455"><ele></ele><time>2014-6-22T14:41:43Z</time></trkpt>
<trkpt lat="46.82448478040107" lon="6.51503109101179"><ele></ele><time>2014-6-22T14:41:46Z</time></trkpt>
<trkpt lat="46.824114473699105" lon="6.513726805251032"><ele></ele><time>2014-6-22T14:41:49Z</time></trkpt>
<trkpt lat="46.82401663133074" lon="6.512745531372657"><ele></ele><time>2014-6-22T14:41:52Z</time></trkpt>
<trkpt lat="46.82408543046526" lon="6.5123511792409605"><ele></ele><time>2014-6-22T14:41:55Z</time></trkpt>
<trkpt lat="46.824533382742146" lon="6.512120725719946"><ele></ele><time>2014-6-22T14:41:58Z</time></trkpt>
<trkpt lat="46.82518333120704" lon="6.512397957747364"><ele></ele><time>2014-6-22T14:42:1Z</time></trkpt>
<trkpt lat="46.825797931337526" lon="6.512754438006176"><ele></ele><time>2014-6-22T14:42:4Z</time></trkpt>
<trkpt lat="46.82658385386132" lon="6.51316042858265"><ele></ele><time>2014-6-22T14:42:7Z</time></trkpt>
<trkpt lat="46.826970633187514" lon="6.513153827891023"><ele></ele><time>2014-6-22T14:42:10Z</time></trkpt>
<trkpt lat="46.82714684557622" lon="6.512692087509834"><ele></ele><time>2014-6-22T14:42:13Z</time></trkpt>
<trkpt lat="46.82693132312973" lon="6.511621025369816"><ele></ele><time>2014-6-22T14:42:16Z</time></trkpt>
<trkpt lat="46.82660669110007" lon="6.510407667032541"><ele></ele><time>2014-6-22T14:42:19Z</time></trkpt>
<trkpt lat="46.826309136523996" lon="6.509206965453013"><ele></ele><time>2014-6-22T14:42:22Z</time></trkpt>
<trkpt lat="46.8257630995373" lon="6.508429943807625"><ele></ele><time>2014-6-22T14:42:25Z</time></trkpt>
<trkpt lat="46.82508054586063" lon="6.507458688872514"><ele></ele><time>2014-6-22T14:42:28Z</time></trkpt>
<trkpt lat="46.82484952909993" lon="6.506702500946334"><ele></ele><time>2014-6-22T14:42:31Z</time></trkpt>
<trkpt lat="46.82449977056262" lon="6.505725559065064"><ele></ele><time>2014-6-22T14:42:34Z</time></trkpt>
<trkpt lat="46.82416091024326" lon="6.504984349170446"><ele></ele><time>2014-6-22T14:42:37Z</time></trkpt>
<trkpt lat="46.82372278284185" lon="6.504205541344797"><ele></ele><time>2014-6-22T14:42:40Z</time></trkpt>
<trkpt lat="46.82349546653173" lon="6.50390802494895"><ele></ele><time>2014-6-22T14:42:43Z</time></trkpt>
<trkpt lat="46.82320529178438" lon="6.503624700555653"><ele></ele><time>2014-6-22T14:42:46Z</time></trkpt>
<trkpt lat="46.82299543174866" lon="6.5032613600072295"><ele></ele><time>2014-6-22T14:42:49Z</time></trkpt>
<trkpt lat="46.822614987541364" lon="6.502940282389589"><ele></ele><time>2014-6-22T14:42:52Z</time></trkpt>
<trkpt lat="46.82229750642599" lon="6.502618122556674"><ele></ele><time>2014-6-22T14:42:55Z</time></trkpt>
<trkpt lat="46.82197927886752" lon="6.502204241394185"><ele></ele><time>2014-6-22T14:42:58Z</time></trkpt>
<trkpt lat="46.82107819529594" lon="6.502023222360596"><ele></ele><time>2014-6-22T14:43:1Z</time></trkpt>
<trkpt lat="46.82017711136054" lon="6.501842209386843"><ele></ele><time>2014-6-22T14:43:4Z</time></trkpt>
<trkpt lat="46.81960936968426" lon="6.501720967667907"><ele></ele><time>2014-6-22T14:43:7Z</time></trkpt>
<trkpt lat="46.8190042627674" lon="6.501430012901818"><ele></ele><time>2014-6-22T14:43:10Z</time></trkpt>
<trkpt lat="46.81802961939712" lon="6.501053721137421"><ele></ele><time>2014-6-22T14:43:13Z</time></trkpt>
<trkpt lat="46.81706236913636" lon="6.500480751548725"><ele></ele><time>2014-6-22T14:43:16Z</time></trkpt>
<trkpt lat="46.816085373626635" lon="6.499816243130422"><ele></ele><time>2014-6-22T14:43:19Z</time></trkpt>
<trkpt lat="46.81597743531422" lon="6.499818111522787"><ele></ele><time>2014-6-22T14:43:22Z</time></trkpt>
<trkpt lat="46.81621351069801" lon="6.501189948331376"><ele></ele><time>2014-6-22T14:43:25Z</time></trkpt>
<trkpt lat="46.816216389033436" lon="6.5015437073850375"><ele></ele><time>2014-6-22T14:43:28Z</time></trkpt>
<trkpt lat="46.81576877732476" lon="6.5018135195067615"><ele></ele><time>2014-6-22T14:43:31Z</time></trkpt>
<trkpt lat="46.814709301209994" lon="6.502067685125677"><ele></ele><time>2014-6-22T14:43:34Z</time></trkpt>
<trkpt lat="46.81392834573472" lon="6.502277722320984"><ele></ele><time>2014-6-22T14:43:37Z</time></trkpt>
<trkpt lat="46.81304706197302" lon="6.502319142690039"><ele></ele><time>2014-6-22T14:43:40Z</time></trkpt>
<trkpt lat="46.812354457323146" lon="6.502331098643604"><ele></ele><time>2014-6-22T14:43:43Z</time></trkpt>
<trkpt lat="46.8115491778959" lon="6.502869114997399"><ele></ele><time>2014-6-22T14:43:46Z</time></trkpt>
<trkpt lat="46.81090616361058" lon="6.504557358195182"><ele></ele><time>2014-6-22T14:43:49Z</time></trkpt>
<trkpt lat="46.810737625334475" lon="6.505962248449836"><ele></ele><time>2014-6-22T14:43:52Z</time></trkpt>
<trkpt lat="46.81064166432648" lon="6.507444499581729"><ele></ele><time>2014-6-22T14:43:55Z</time></trkpt>
<trkpt lat="46.81042970237269" lon="6.50904665675109"><ele></ele><time>2014-6-22T14:43:58Z</time></trkpt>
<trkpt lat="46.81016915425724" lon="6.51020414565804"><ele></ele><time>2014-6-22T14:44:1Z</time></trkpt>
<trkpt lat="46.81019157769928" lon="6.510754068891085"><ele></ele><time>2014-6-22T14:44:4Z</time></trkpt>
<trkpt lat="46.81022805420433" lon="6.511932674920392"><ele></ele><time>2014-6-22T14:44:7Z</time></trkpt>
<trkpt lat="46.810324850719304" lon="6.51278268878184"><ele></ele><time>2014-6-22T14:44:10Z</time></trkpt>
<trkpt lat="46.81038066317139" lon="6.514131302754743"><ele></ele><time>2014-6-22T14:44:13Z</time></trkpt>
<trkpt lat="46.810616042478735" lon="6.515437555472741"><ele></ele><time>2014-6-22T14:44:16Z</time></trkpt>
<trkpt lat="46.811081205292034" lon="6.517355743546755"><ele></ele><time>2014-6-22T14:44:19Z</time></trkpt>
<trkpt lat="46.81151391223645" lon="6.518593165872177"><ele></ele><time>2014-6-22T14:44:22Z</time></trkpt>
<trkpt lat="46.81199723052389" lon="6.519410455593632"><ele></ele><time>2014-6-22T14:44:25Z</time></trkpt>
<trkpt lat="46.812182353625374" lon="6.520062469239608"><ele></ele><time>2014-6-22T14:44:28Z</time></trkpt>
<trkpt lat="46.81248010794835" lon="6.521302220136341"><ele></ele><time>2014-6-22T14:44:31Z</time></trkpt>
<trkpt lat="46.812740827357906" lon="6.522411578481807"><ele></ele><time>2014-6-22T14:44:34Z</time></trkpt>
<trkpt lat="46.81294652585399" lon="6.523390843626438"><ele></ele><time>2014-6-22T14:44:37Z</time></trkpt>
<trkpt lat="46.812997222941334" lon="6.524110664417675"><ele></ele><time>2014-6-22T14:44:40Z</time></trkpt>
<trkpt lat="46.81309257820764" lon="6.524790424531461"><ele></ele><time>2014-6-22T14:44:43Z</time></trkpt>
<trkpt lat="46.813037923443495" lon="6.525839602004579"><ele></ele><time>2014-6-22T14:44:46Z</time></trkpt>
<trkpt lat="46.81279260329049" lon="6.5266692282083545"><ele></ele><time>2014-6-22T14:44:49Z</time></trkpt>
<trkpt lat="46.81237782455871" lon="6.5276851355516925"><ele></ele><time>2014-6-22T14:44:52Z</time></trkpt>
<trkpt lat="46.8119803022024" lon="6.5286090170564"><ele></ele><time>2014-6-22T14:44:55Z</time></trkpt>
<trkpt lat="46.81157144120226" lon="6.529197873634772"><ele></ele><time>2014-6-22T14:44:58Z</time></trkpt>
<trkpt lat="46.81155345151242" lon="6.529198176266834"><ele></ele><time>2014-6-22T14:45:1Z</time></trkpt>
<trkpt lat="46.81148273858818" lon="6.529356600283407"><ele></ele><time>2014-6-22T14:45:4Z</time></trkpt>
<trkpt lat="46.811394866045" lon="6.529620135237193"><ele></ele><time>2014-6-22T14:45:7Z</time></trkpt>
<trkpt lat="46.811162867852616" lon="6.529859886444935"><ele></ele><time>2014-6-22T14:45:10Z</time></trkpt>
<trkpt lat="46.81093086915223" lon="6.530099635589602"><ele></ele><time>2014-6-22T14:45:13Z</time></trkpt>
<trkpt lat="46.81080660071094" lon="6.530311367264492"><ele></ele><time>2014-6-22T14:45:16Z</time></trkpt>
<trkpt lat="46.81071810390902" lon="6.530496291710914"><ele></ele><time>2014-6-22T14:45:19Z</time></trkpt>
<trkpt lat="46.810540902127705" lon="6.530839936985447"><ele></ele><time>2014-6-22T14:45:22Z</time></trkpt>
<trkpt lat="46.8103628704508" lon="6.531078773154521"><ele></ele><time>2014-6-22T14:45:25Z</time></trkpt>
<trkpt lat="46.81018504544168" lon="6.53134380937203"><ele></ele><time>2014-6-22T14:45:28Z</time></trkpt>
<trkpt lat="46.810060981804185" lon="6.531581736816405"><ele></ele><time>2014-6-22T14:45:31Z</time></trkpt>
<trkpt lat="46.809991507916735" lon="6.531897362520011"><ele></ele><time>2014-6-22T14:45:34Z</time></trkpt>
<trkpt lat="46.80992141222889" lon="6.5321343829071585"><ele></ele><time>2014-6-22T14:45:37Z</time></trkpt>
<trkpt lat="46.80992172270046" lon="6.532173685158309"><ele></ele><time>2014-6-22T14:45:40Z</time></trkpt>
<trkpt lat="46.809929819342294" lon="6.532085593849397"><ele></ele><time>2014-6-22T14:45:43Z</time></trkpt>
<trkpt lat="46.80996641861278" lon="6.53216359604776"><ele></ele><time>2014-6-22T14:45:46Z</time></trkpt>
<trkpt lat="46.81000446358922" lon="6.532425008906263"><ele></ele><time>2014-6-22T14:45:49Z</time></trkpt>
<trkpt lat="46.810040443106736" lon="6.532424406864127"><ele></ele><time>2014-6-22T14:45:52Z</time></trkpt>
<trkpt lat="46.810129359242296" lon="6.532291893909747"><ele></ele><time>2014-6-22T14:45:55Z</time></trkpt>
<trkpt lat="46.81034420352682" lon="6.53215727273941"><ele></ele><time>2014-6-22T14:45:58Z</time></trkpt>
<trkpt lat="46.81059647327244" lon="6.532205460742239"><ele></ele><time>2014-6-22T14:46:1Z</time></trkpt>
<trkpt lat="46.810848329868925" lon="6.532201245361083"><ele></ele><time>2014-6-22T14:46:4Z</time></trkpt>
<trkpt lat="46.81104683686704" lon="6.532276539290625"><ele></ele><time>2014-6-22T14:46:7Z</time></trkpt>
<trkpt lat="46.8114967873176" lon="6.532295214562143"><ele></ele><time>2014-6-22T14:46:10Z</time></trkpt>
<trkpt lat="46.8118195701054" lon="6.53215878328267"><ele></ele><time>2014-6-22T14:46:13Z</time></trkpt>
<trkpt lat="46.81215724267712" lon="6.531629010913694"><ele></ele><time>2014-6-22T14:46:16Z</time></trkpt>
<trkpt lat="46.812335072915886" lon="6.531363971548216"><ele></ele><time>2014-6-22T14:46:19Z</time></trkpt>
<trkpt lat="46.81263758976606" lon="6.53093960339816"><ele></ele><time>2014-6-22T14:46:22Z</time></trkpt>
<trkpt lat="46.81292273611777" lon="6.530594140918566"><ele></ele><time>2014-6-22T14:46:25Z</time></trkpt>
<trkpt lat="46.813154740183904" lon="6.530354392200499"><ele></ele><time>2014-6-22T14:46:28Z</time></trkpt>
<trkpt lat="46.81342106668811" lon="6.529904412523917"><ele></ele><time>2014-6-22T14:46:31Z</time></trkpt>
<trkpt lat="46.81345580351651" lon="6.529746589709564"><ele></ele><time>2014-6-22T14:46:34Z</time></trkpt>
<trkpt lat="46.81356125600959" lon="6.529430339393517"><ele></ele><time>2014-6-22T14:46:37Z</time></trkpt>
<trkpt lat="46.81378375743225" lon="6.529108241640809"><ele></ele><time>2014-6-22T14:46:40Z</time></trkpt>
<trkpt lat="46.813783965107326" lon="6.529134445007335"><ele></ele><time>2014-6-22T14:46:43Z</time></trkpt>
<trkpt lat="46.81394441841752" lon="6.528948296898628"><ele></ele><time>2014-6-22T14:46:46Z</time></trkpt>
<trkpt lat="46.81408708949276" lon="6.528788653985784"><ele></ele><time>2014-6-22T14:46:49Z</time></trkpt>
<trkpt lat="46.8142657397091" lon="6.528628404554749"><ele></ele><time>2014-6-22T14:46:52Z</time></trkpt>
<trkpt lat="46.81440799467239" lon="6.52841635250917"><ele></ele><time>2014-6-22T14:46:55Z</time></trkpt>
<trkpt lat="46.814568446803904" lon="6.528230200108913"><ele></ele><time>2014-6-22T14:46:58Z</time></trkpt>
<trkpt lat="46.81472765099228" lon="6.527886823673332"><ele></ele><time>2014-6-22T14:47:1Z</time></trkpt>
<trkpt lat="46.81481468739338" lon="6.527518454155426"><ele></ele><time>2014-6-22T14:47:4Z</time></trkpt>
<trkpt lat="46.81486636760399" lon="6.527229301770377"><ele></ele><time>2014-6-22T14:47:7Z</time></trkpt>
<trkpt lat="46.81486407805231" lon="6.526941059041145"><ele></ele><time>2014-6-22T14:47:10Z</time></trkpt>
<trkpt lat="46.814952777284034" lon="6.5267823184637335"><ele></ele><time>2014-6-22T14:47:13Z</time></trkpt>
<trkpt lat="46.81504126804509" lon="6.526597373395626"><ele></ele><time>2014-6-22T14:47:16Z</time></trkpt>
<trkpt lat="46.815183310929996" lon="6.526359108903138"><ele></ele><time>2014-6-22T14:47:19Z</time></trkpt>
<trkpt lat="46.81525339461973" lon="6.526122057871147"><ele></ele><time>2014-6-22T14:47:22Z</time></trkpt>
<trkpt lat="46.81528708162764" lon="6.52583320556845"><ele></ele><time>2014-6-22T14:47:25Z</time></trkpt>
<trkpt lat="46.815392309597115" lon="6.525490729146019"><ele></ele><time>2014-6-22T14:47:28Z</time></trkpt>
<trkpt lat="46.815497327953615" lon="6.525122047201842"><ele></ele><time>2014-6-22T14:47:31Z</time></trkpt>
<trkpt lat="46.81554816743387" lon="6.524728072024121"><ele></ele><time>2014-6-22T14:47:34Z</time></trkpt>
<trkpt lat="46.81577660539731" lon="6.524042805832861"><ele></ele><time>2014-6-22T14:47:37Z</time></trkpt>
<trkpt lat="46.81589793718687" lon="6.523464178950437"><ele></ele><time>2014-6-22T14:47:40Z</time></trkpt>
<trkpt lat="46.816040182559" lon="6.523252106855598"><ele></ele><time>2014-6-22T14:47:43Z</time></trkpt>
<trkpt lat="46.816110050733386" lon="6.522988843540244"><ele></ele><time>2014-6-22T14:47:46Z</time></trkpt>
<trkpt lat="46.816165483130696" lon="6.52317136085993"><ele></ele><time>2014-6-22T14:47:49Z</time></trkpt>
<trkpt lat="46.81623974083417" lon="6.523458392101191"><ele></ele><time>2014-6-22T14:47:52Z</time></trkpt>
<trkpt lat="46.81634997714917" lon="6.523744815177521"><ele></ele><time>2014-6-22T14:47:55Z</time></trkpt>
<trkpt lat="46.8164229802664" lon="6.523874620409547"><ele></ele><time>2014-6-22T14:47:58Z</time></trkpt>
<trkpt lat="46.81660454774522" lon="6.524081213791921"><ele></ele><time>2014-6-22T14:48:1Z</time></trkpt>
<trkpt lat="46.81678590606328" lon="6.524261603758593"><ele></ele><time>2014-6-22T14:48:4Z</time></trkpt>
<trkpt lat="46.816894887924036" lon="6.5243908022099815"><ele></ele><time>2014-6-22T14:48:7Z</time></trkpt>
<trkpt lat="46.81693232841471" lon="6.524573627832712"><ele></ele><time>2014-6-22T14:48:10Z</time></trkpt>
<trkpt lat="46.81696935125329" lon="6.52470404391228"><ele></ele><time>2014-6-22T14:48:13Z</time></trkpt>
<trkpt lat="46.81706117752266" lon="6.524938367590097"><ele></ele><time>2014-6-22T14:48:16Z</time></trkpt>
<trkpt lat="46.8170339424965" lon="6.524916602961422"><ele></ele><time>2014-6-22T14:48:19Z</time></trkpt>
<trkpt lat="46.81719855656021" lon="6.525254535566628"><ele></ele><time>2014-6-22T14:48:22Z</time></trkpt>
<trkpt lat="46.81730836808186" lon="6.525488560126375"><ele></ele><time>2014-6-22T14:48:25Z</time></trkpt>
<trkpt lat="46.817417346881584" lon="6.525617765299725"><ele></ele><time>2014-6-22T14:48:28Z</time></trkpt>
<trkpt lat="46.81741797107264" lon="6.525696380553894"><ele></ele><time>2014-6-22T14:48:31Z</time></trkpt>
<trkpt lat="46.81742025931172" lon="6.525984636501168"><ele></ele><time>2014-6-22T14:48:34Z</time></trkpt>
<trkpt lat="46.81742233889983" lon="6.52624668738321"><ele></ele><time>2014-6-22T14:48:37Z</time></trkpt>
<trkpt lat="46.81736920137987" lon="6.526352417000374"><ele></ele><time>2014-6-22T14:48:40Z</time></trkpt>
<trkpt lat="46.81724493631647" lon="6.526564178624373"><ele></ele><time>2014-6-22T14:48:43Z</time></trkpt>
<trkpt lat="46.81697820751693" lon="6.526961796940615"><ele></ele><time>2014-6-22T14:48:46Z</time></trkpt>
<trkpt lat="46.816765031168146" lon="6.5273060935357075"><ele></ele><time>2014-6-22T14:48:49Z</time></trkpt>
<trkpt lat="46.81664221765485" lon="6.527701283594345"><ele></ele><time>2014-6-22T14:48:52Z</time></trkpt>
<trkpt lat="46.81655475970281" lon="6.528017252829299"><ele></ele><time>2014-6-22T14:48:55Z</time></trkpt>
<trkpt lat="46.81644951859122" lon="6.528359728083724"><ele></ele><time>2014-6-22T14:48:58Z</time></trkpt>
<trkpt lat="46.81643381039366" lon="6.5286482812793984"><ele></ele><time>2014-6-22T14:49:1Z</time></trkpt>
<trkpt lat="46.81631016304214" lon="6.528938647615739"><ele></ele><time>2014-6-22T14:49:4Z</time></trkpt>
<trkpt lat="46.8161149704781" lon="6.529282630029434"><ele></ele><time>2014-6-22T14:49:7Z</time></trkpt>
<trkpt lat="46.815973953252104" lon="6.529651908392347"><ele></ele><time>2014-6-22T14:49:10Z</time></trkpt>
<trkpt lat="46.815868500173735" lon="6.529968172418958"><ele></ele><time>2014-6-22T14:49:13Z</time></trkpt>
<trkpt lat="46.8157986116831" lon="6.530231423045962"><ele></ele><time>2014-6-22T14:49:16Z</time></trkpt>
<trkpt lat="46.81574754011231" lon="6.53059918846004"><ele></ele><time>2014-6-22T14:49:19Z</time></trkpt>
<trkpt lat="46.81573368783919" lon="6.5311235758189445"><ele></ele><time>2014-6-22T14:49:22Z</time></trkpt>
<trkpt lat="46.815717559173365" lon="6.5313597158159675"><ele></ele><time>2014-6-22T14:49:25Z</time></trkpt>
<trkpt lat="46.815646840639204" lon="6.531518146915262"><ele></ele><time>2014-6-22T14:49:28Z</time></trkpt>
<trkpt lat="46.81553993570227" lon="6.531650976004651"><ele></ele><time>2014-6-22T14:49:31Z</time></trkpt>
<trkpt lat="46.815396844450305" lon="6.531758202969203"><ele></ele><time>2014-6-22T14:49:34Z</time></trkpt>
<trkpt lat="46.81530751569171" lon="6.531838321574449"><ele></ele><time>2014-6-22T14:49:37Z</time></trkpt>
<trkpt lat="46.815201023607386" lon="6.5320235572562835"><ele></ele><time>2014-6-22T14:49:40Z</time></trkpt>
<trkpt lat="46.8152024697151" lon="6.532206985481232"><ele></ele><time>2014-6-22T14:49:43Z</time></trkpt>
<trkpt lat="46.81522149221836" lon="6.532337704569944"><ele></ele><time>2014-6-22T14:49:46Z</time></trkpt>
<trkpt lat="46.81524030806341" lon="6.532442219698604"><ele></ele><time>2014-6-22T14:49:49Z</time></trkpt>
<trkpt lat="46.81515077232836" lon="6.532496132929483"><ele></ele><time>2014-6-22T14:49:52Z</time></trkpt>
<trkpt lat="46.81504200778545" lon="6.5323931232507455"><ele></ele><time>2014-6-22T14:49:55Z</time></trkpt>
<trkpt lat="46.81498783201087" lon="6.532367822496254"><ele></ele><time>2014-6-22T14:49:58Z</time></trkpt>
<trkpt lat="46.8148796869817" lon="6.532343425016261"><ele></ele><time>2014-6-22T14:50:1Z</time></trkpt>
<trkpt lat="46.81471798576471" lon="6.532372338474506"><ele></ele><time>2014-6-22T14:50:4Z</time></trkpt>
<trkpt lat="46.81461066682003" lon="6.532452756091173"><ele></ele><time>2014-6-22T14:50:7Z</time></trkpt>
<trkpt lat="46.81452236995023" lon="6.532663890896927"><ele></ele><time>2014-6-22T14:50:10Z</time></trkpt>
<trkpt lat="46.81445206244234" lon="6.53287472411665"><ele></ele><time>2014-6-22T14:50:13Z</time></trkpt>
<trkpt lat="46.814364590205095" lon="6.53319067212657"><ele></ele><time>2014-6-22T14:50:16Z</time></trkpt>
<trkpt lat="46.814331292622924" lon="6.533531920675709"><ele></ele><time>2014-6-22T14:50:19Z</time></trkpt>
<trkpt lat="46.81429840638197" lon="6.533925576002556"><ele></ele><time>2014-6-22T14:50:22Z</time></trkpt>
<trkpt lat="46.81420969453437" lon="6.534084300058468"><ele></ele><time>2014-6-22T14:50:25Z</time></trkpt>
<trkpt lat="46.814157786331585" lon="6.534347236849972"><ele></ele><time>2014-6-22T14:50:28Z</time></trkpt>
<trkpt lat="46.8140345365179" lon="6.534689984812707"><ele></ele><time>2014-6-22T14:50:31Z</time></trkpt>
<trkpt lat="46.81394685334275" lon="6.5349797239975835"><ele></ele><time>2014-6-22T14:50:34Z</time></trkpt>
<trkpt lat="46.8137865927744" lon="6.535192052540995"><ele></ele><time>2014-6-22T14:50:37Z</time></trkpt>
<trkpt lat="46.813628184079285" lon="6.535640209341256"><ele></ele><time>2014-6-22T14:50:40Z</time></trkpt>
<trkpt lat="46.81352168583053" lon="6.535825431748254"><ele></ele><time>2014-6-22T14:50:43Z</time></trkpt>
<trkpt lat="46.813541938352145" lon="6.53611336747694"><ele></ele><time>2014-6-22T14:50:46Z</time></trkpt>
<trkpt lat="46.81354399477781" lon="6.536375399892497"><ele></ele><time>2014-6-22T14:50:49Z</time></trkpt>
<trkpt lat="46.81351027662703" lon="6.536664234824282"><ele></ele><time>2014-6-22T14:50:52Z</time></trkpt>
<trkpt lat="46.813386197953726" lon="6.536902160702387"><ele></ele><time>2014-6-22T14:50:55Z</time></trkpt>
<trkpt lat="46.81324330722097" lon="6.537035572554219"><ele></ele><time>2014-6-22T14:50:58Z</time></trkpt>
<trkpt lat="46.812992272303056" lon="6.537144577449799"><ele></ele><time>2014-6-22T14:51:1Z</time></trkpt>
<trkpt lat="46.81288494999019" lon="6.537224982998722"><ele></ele><time>2014-6-22T14:51:4Z</time></trkpt>
<trkpt lat="46.812760870144515" lon="6.53746290482887"><ele></ele><time>2014-6-22T14:51:7Z</time></trkpt>
<trkpt lat="46.812654368939924" lon="6.537648120658329"><ele></ele><time>2014-6-22T14:51:10Z</time></trkpt>
<trkpt lat="46.812495129695826" lon="6.537991449877918"><ele></ele><time>2014-6-22T14:51:13Z</time></trkpt>
<trkpt lat="46.81233527389978" lon="6.538256169082356"><ele></ele><time>2014-6-22T14:51:16Z</time></trkpt>
<trkpt lat="46.81212226861609" lon="6.53862659395426"><ele></ele><time>2014-6-22T14:51:19Z</time></trkpt>
<trkpt lat="46.81198060615301" lon="6.53891721306397"><ele></ele><time>2014-6-22T14:51:22Z</time></trkpt>
<trkpt lat="46.81198142623052" lon="6.539022023035312"><ele></ele><time>2014-6-22T14:51:25Z</time></trkpt>
<trkpt lat="46.81189332218843" lon="6.539259339242852"><ele></ele><time>2014-6-22T14:51:28Z</time></trkpt>
<trkpt lat="46.811787432775816" lon="6.539523155747626"><ele></ele><time>2014-6-22T14:51:31Z</time></trkpt>
<trkpt lat="46.81168154275458" lon="6.539786971216433"><ele></ele><time>2014-6-22T14:51:34Z</time></trkpt>
<trkpt lat="46.8115225018367" lon="6.540156490202636"><ele></ele><time>2014-6-22T14:51:37Z</time></trkpt>
<trkpt lat="46.81141620096707" lon="6.5403678986843765"><ele></ele><time>2014-6-22T14:51:40Z</time></trkpt>
<trkpt lat="46.81134608391013" lon="6.540604911906184"><ele></ele><time>2014-6-22T14:51:43Z</time></trkpt>
<trkpt lat="46.81118642663918" lon="6.540895819839258"><ele></ele><time>2014-6-22T14:51:46Z</time></trkpt>
<trkpt lat="46.8110631571997" lon="6.541238533951666"><ele></ele><time>2014-6-22T14:51:49Z</time></trkpt>
<trkpt lat="46.810903702746415" lon="6.54155564046213"><ele></ele><time>2014-6-22T14:51:52Z</time></trkpt>
<trkpt lat="46.810725644537484" lon="6.541794437290308"><ele></ele><time>2014-6-22T14:51:55Z</time></trkpt>
<trkpt lat="46.8105661885401" lon="6.542111540173212"><ele></ele><time>2014-6-22T14:51:58Z</time></trkpt>
<trkpt lat="46.81046090524066" lon="6.5424539498873795"><ele></ele><time>2014-6-22T14:52:1Z</time></trkpt>
<trkpt lat="46.81024666141028" lon="6.54266713532151"><ele></ele><time>2014-6-22T14:52:4Z</time></trkpt>
<trkpt lat="46.809905672128735" lon="6.542777595799763"><ele></ele><time>2014-6-22T14:52:7Z</time></trkpt>
<trkpt lat="46.80969163178092" lon="6.543016979150753"><ele></ele><time>2014-6-22T14:52:10Z</time></trkpt>
<trkpt lat="46.809548733874934" lon="6.543150365669333"><ele></ele><time>2014-6-22T14:52:13Z</time></trkpt>
<trkpt lat="46.809369040056204" lon="6.54317954131356"><ele></ele><time>2014-6-22T14:52:16Z</time></trkpt>
<trkpt lat="46.80929912116802" lon="6.543442743091026"><ele></ele><time>2014-6-22T14:52:19Z</time></trkpt>
<trkpt lat="46.809283171043546" lon="6.543705052421676"><ele></ele><time>2014-6-22T14:52:22Z</time></trkpt>
<trkpt lat="46.80917747523981" lon="6.543995048581347"><ele></ele><time>2014-6-22T14:52:25Z</time></trkpt>
<trkpt lat="46.80901801312695" lon="6.5443121358581315"><ele></ele><time>2014-6-22T14:52:28Z</time></trkpt>
<trkpt lat="46.80883872657277" lon="6.5443937093186975"><ele></ele><time>2014-6-22T14:52:31Z</time></trkpt>
<trkpt lat="46.80855129743737" lon="6.544450863355962"><ele></ele><time>2014-6-22T14:52:34Z</time></trkpt>
<trkpt lat="46.808410027537356" lon="6.5447938494887525"><ele></ele><time>2014-6-22T14:52:37Z</time></trkpt>
<trkpt lat="46.80835931638515" lon="6.5452139522304345"><ele></ele><time>2014-6-22T14:52:40Z</time></trkpt>
<trkpt lat="46.80828918928204" lon="6.545450945719419"><ele></ele><time>2014-6-22T14:52:43Z</time></trkpt>
<trkpt lat="46.80807555026675" lon="6.5457427125318866"><ele></ele><time>2014-6-22T14:52:46Z</time></trkpt>
<trkpt lat="46.80810333195929" lon="6.545790978329841"><ele></ele><time>2014-6-22T14:52:49Z</time></trkpt>
<trkpt lat="46.807942851165144" lon="6.545977056143611"><ele></ele><time>2014-6-22T14:52:52Z</time></trkpt>
<trkpt lat="46.80785494033077" lon="6.5462405466903455"><ele></ele><time>2014-6-22T14:52:55Z</time></trkpt>
<trkpt lat="46.80749738643778" lon="6.546534689289062"><ele></ele><time>2014-6-22T14:52:58Z</time></trkpt>
<trkpt lat="46.80731891468009" lon="6.546721059560969"><ele></ele><time>2014-6-22T14:53:1Z</time></trkpt>
<trkpt lat="46.80746486880875" lon="6.546980689067535"><ele></ele><time>2014-6-22T14:53:4Z</time></trkpt>
<trkpt lat="46.807791533861206" lon="6.54734215615067"><ele></ele><time>2014-6-22T14:53:7Z</time></trkpt>
<trkpt lat="46.80804522159523" lon="6.547573810133699"><ele></ele><time>2014-6-22T14:53:10Z</time></trkpt>
<trkpt lat="46.80820997704602" lon="6.547937951959636"><ele></ele><time>2014-6-22T14:53:13Z</time></trkpt>
<trkpt lat="46.80817704740741" lon="6.548331555357204"><ele></ele><time>2014-6-22T14:53:16Z</time></trkpt>
<trkpt lat="46.80808933437126" lon="6.548621243878792"><ele></ele><time>2014-6-22T14:53:19Z</time></trkpt>
<trkpt lat="46.80787670801356" lon="6.5490440065471525"><ele></ele><time>2014-6-22T14:53:22Z</time></trkpt>
<trkpt lat="46.80773421167781" lon="6.54922977796747"><ele></ele><time>2014-6-22T14:53:25Z</time></trkpt>
<trkpt lat="46.808117477237815" lon="6.549930982008852"><ele></ele><time>2014-6-22T14:53:28Z</time></trkpt>
<trkpt lat="46.80848254597995" lon="6.550606290612152"><ele></ele><time>2014-6-22T14:53:31Z</time></trkpt>
<trkpt lat="46.80864850771624" lon="6.551127650366741"><ele></ele><time>2014-6-22T14:53:34Z</time></trkpt>
<trkpt lat="46.80870551588187" lon="6.551519779172304"><ele></ele><time>2014-6-22T14:53:37Z</time></trkpt>
<trkpt lat="46.80863618949093" lon="6.551861572169672"><ele></ele><time>2014-6-22T14:53:40Z</time></trkpt>
<trkpt lat="46.8085470505495" lon="6.551967851062333"><ele></ele><time>2014-6-22T14:53:43Z</time></trkpt>
<trkpt lat="46.8086396306247" lon="6.552306988335749"><ele></ele><time>2014-6-22T14:53:46Z</time></trkpt>
<trkpt lat="46.808895128885936" lon="6.552774479018767"><ele></ele><time>2014-6-22T14:53:49Z</time></trkpt>
<trkpt lat="46.809185189515134" lon="6.55305797639102"><ele></ele><time>2014-6-22T14:53:52Z</time></trkpt>
<trkpt lat="46.809496472533645" lon="6.553760404213115"><ele></ele><time>2014-6-22T14:53:55Z</time></trkpt>
<trkpt lat="46.80973559031657" lon="6.55443781542066"><ele></ele><time>2014-6-22T14:53:58Z</time></trkpt>
<trkpt lat="46.80997369538031" lon="6.55498422457978"><ele></ele><time>2014-6-22T14:54:1Z</time></trkpt>
<trkpt lat="46.81031852650071" lon="6.555371664848998"><ele></ele><time>2014-6-22T14:54:4Z</time></trkpt>
<trkpt lat="46.81060858065284" lon="6.555655183679112"><ele></ele><time>2014-6-22T14:54:7Z</time></trkpt>
<trkpt lat="46.81025301773049" lon="6.556211296345954"><ele></ele><time>2014-6-22T14:54:10Z</time></trkpt>
<trkpt lat="46.8096314301213" lon="6.557269630584559"><ele></ele><time>2014-6-22T14:54:13Z</time></trkpt>
<trkpt lat="46.80907998260744" lon="6.558090958127313"><ele></ele><time>2014-6-22T14:54:16Z</time></trkpt>
<trkpt lat="46.808564910416244" lon="6.558964085348612"><ele></ele><time>2014-6-22T14:54:19Z</time></trkpt>
<trkpt lat="46.80788912730746" lon="6.559997031084224"><ele></ele><time>2014-6-22T14:54:22Z</time></trkpt>
<trkpt lat="46.80751615482681" lon="6.560631980531033"><ele></ele><time>2014-6-22T14:54:25Z</time></trkpt>
<trkpt lat="46.80751625505771" lon="6.560645080749602"><ele></ele><time>2014-6-22T14:54:28Z</time></trkpt>
</trkseg></trk></gpx>